createdAt,value
2016-04-04T00:00:04.921Z,12.32
2016-04-04T00:01:04.956Z,12.28
2016-04-04T00:02:04.926Z,12.32
2016-04-04T00:03:04.946Z,12.3
2016-04-04T00:04:04.932Z,12.32
2016-04-04T00:05:04.951Z,12.32
2016-04-04T00:06:05.359Z,12.29
2016-04-04T00:07:04.940Z,12.3
2016-04-04T00:08:04.943Z,12.32
2016-04-04T00:09:04.945Z,12.35
2016-04-04T00:10:04.964Z,12.33
2016-04-04T00:11:04.951Z,12.35
2016-04-04T00:12:04.954Z,12.35
2016-04-04T00:13:04.941Z,12.32
2016-04-04T00:14:04.928Z,12.35
2016-04-04T00:15:04.947Z,12.36
2016-04-04T00:16:04.965Z,12.29
2016-04-04T00:17:04.952Z,12.26
2016-04-04T00:18:04.954Z,12.28
2016-04-04T00:19:04.941Z,12.36
2016-04-04T00:20:04.960Z,12.32
2016-04-04T00:21:04.947Z,12.36
2016-04-04T00:22:04.934Z,12.35
2016-04-04T00:23:04.952Z,12.36
2016-04-04T00:24:04.939Z,12.5
2016-04-04T00:25:04.957Z,12.48
2016-04-04T00:26:04.960Z,12.37
2016-04-04T00:27:04.947Z,12.44
2016-04-04T00:28:04.950Z,12.54
2016-04-04T00:29:04.952Z,12.5
2016-04-04T00:30:05.002Z,12.48
2016-04-04T00:31:04.973Z,12.47
2016-04-04T00:32:04.960Z,12.48
2016-04-04T00:33:04.963Z,12.53
2016-04-04T00:34:04.951Z,12.5
2016-04-04T00:35:04.968Z,12.5
2016-04-04T00:36:04.956Z,12.55
2016-04-04T00:37:04.958Z,12.55
2016-04-04T00:38:04.961Z,12.5
2016-04-04T00:39:04.965Z,12.51
2016-04-04T00:40:04.966Z,12.51
2016-04-04T00:41:04.954Z,12.51
2016-04-04T00:42:04.972Z,12.51
2016-04-04T00:43:04.974Z,12.47
2016-04-04T00:44:04.961Z,12.48
2016-04-04T00:45:04.965Z,12.4
2016-04-04T00:46:04.967Z,12.36
2016-04-04T00:47:04.986Z,12.44
2016-04-04T00:48:04.972Z,12.36
2016-04-04T00:49:04.975Z,12.35
2016-04-04T00:50:04.977Z,12.29
2016-04-04T00:51:05.027Z,12.36
2016-04-04T00:52:04.968Z,12.36
2016-04-04T00:53:04.971Z,12.3
2016-04-04T00:54:04.973Z,12.29
2016-04-04T00:55:04.976Z,12.29
2016-04-04T00:56:04.979Z,12.35
2016-04-04T00:57:04.966Z,12.33
2016-04-04T00:58:04.968Z,12.33
2016-04-04T00:59:04.987Z,12.39
2016-04-04T01:00:05.004Z,12.4
2016-04-04T01:01:04.976Z,12.35
2016-04-04T01:02:04.979Z,12.39
2016-04-04T01:03:04.966Z,12.4
2016-04-04T01:04:04.969Z,12.35
2016-04-04T01:05:04.971Z,12.32
2016-04-04T01:06:04.990Z,12.39
2016-04-04T01:07:04.977Z,12.37
2016-04-04T01:08:04.980Z,12.44
2016-04-04T01:09:04.967Z,12.44
2016-04-04T01:10:04.985Z,12.43
2016-04-04T01:11:04.988Z,12.33
2016-04-04T01:12:04.990Z,12.4
2016-04-04T01:13:04.993Z,12.36
2016-04-04T01:14:04.980Z,12.33
2016-04-04T01:15:04.983Z,12.33
2016-04-04T01:16:04.986Z,12.29
2016-04-04T01:17:04.988Z,12.32
2016-04-04T01:18:04.975Z,12.32
2016-04-04T01:19:04.978Z,12.35
2016-04-04T01:20:04.996Z,12.35
2016-04-04T01:21:04.983Z,12.33
2016-04-04T01:22:04.986Z,12.39
2016-04-04T01:23:04.989Z,12.4
2016-04-04T01:24:04.992Z,12.47
2016-04-04T01:25:04.994Z,12.45
2016-04-04T01:26:04.981Z,12.48
2016-04-04T01:27:04.983Z,12.54
2016-04-04T01:28:05.002Z,12.58
2016-04-04T01:29:04.988Z,12.62
2016-04-04T01:30:04.991Z,12.55
2016-04-04T01:31:04.994Z,12.58
2016-04-04T01:32:04.997Z,12.58
2016-04-04T01:33:05.000Z,12.8
2016-04-04T01:34:05.002Z,12.83
2016-04-04T01:35:04.990Z,12.84
2016-04-04T01:36:04.993Z,12.9
2016-04-04T01:37:04.996Z,13.01
2016-04-04T01:38:04.982Z,13.16
2016-04-04T01:39:05.001Z,13.17
2016-04-04T01:40:04.988Z,13.26
2016-04-04T01:41:04.990Z,13.31
2016-04-04T01:42:04.993Z,13.17
2016-04-04T01:43:04.995Z,13.31
2016-04-04T01:44:04.998Z,13.27
2016-04-04T01:45:05.001Z,13.24
2016-04-04T01:46:05.003Z,13.2
2016-04-04T01:47:04.991Z,13.3
2016-04-04T01:48:04.993Z,13.24
2016-04-04T01:49:05.011Z,13.27
2016-04-04T01:50:04.999Z,13.26
2016-04-04T01:51:05.001Z,13.3
2016-04-04T01:52:05.004Z,13.21
2016-04-04T01:53:05.007Z,13.31
2016-04-04T01:54:04.993Z,13.19
2016-04-04T01:55:04.855Z,13.17
2016-04-04T01:56:05.015Z,13.19
2016-04-04T01:57:05.002Z,13.31
2016-04-04T01:58:05.004Z,13.26
2016-04-04T01:59:05.007Z,13.11
2016-04-04T02:00:05.015Z,13.19
2016-04-04T02:01:05.002Z,13.11
2016-04-04T02:02:05.005Z,13.05
2016-04-04T02:03:05.007Z,13.02
2016-04-04T02:04:04.995Z,13.03
2016-04-04T02:05:04.997Z,13.01
2016-04-04T02:06:05.015Z,12.99
2016-04-04T02:07:05.018Z,12.9
2016-04-04T02:08:05.005Z,12.99
2016-04-04T02:09:05.023Z,12.94
2016-04-04T02:10:05.011Z,12.83
2016-04-04T02:11:05.014Z,12.8
2016-04-04T02:12:05.016Z,12.78
2016-04-04T02:13:05.019Z,12.84
2016-04-04T02:14:05.022Z,12.78
2016-04-04T02:15:05.009Z,12.84
2016-04-04T02:16:05.011Z,12.78
2016-04-04T02:17:05.014Z,12.84
2016-04-04T02:18:05.016Z,12.86
2016-04-04T02:19:05.019Z,12.86
2016-04-04T02:20:05.006Z,12.83
2016-04-04T02:21:05.025Z,12.87
2016-04-04T02:22:05.012Z,12.8
2016-04-04T02:23:05.014Z,12.81
2016-04-04T02:24:05.017Z,12.83
2016-04-04T02:25:05.035Z,12.78
2016-04-04T02:26:05.022Z,12.65
2016-04-04T02:27:05.010Z,12.73
2016-04-04T02:28:05.013Z,12.7
2016-04-04T02:29:05.030Z,12.69
2016-04-04T02:30:05.033Z,12.55
2016-04-04T02:31:05.036Z,12.57
2016-04-04T02:32:05.023Z,12.61
2016-04-04T02:33:05.026Z,12.61
2016-04-04T02:34:05.029Z,12.55
2016-04-04T02:35:05.046Z,12.54
2016-04-04T02:36:05.034Z,12.53
2016-04-04T02:37:05.037Z,12.58
2016-04-04T02:38:05.023Z,12.5
2016-04-04T02:39:05.026Z,12.5
2016-04-04T02:40:05.029Z,12.5
2016-04-04T02:41:05.031Z,12.5
2016-04-04T02:42:05.034Z,12.55
2016-04-04T02:43:05.037Z,12.5
2016-04-04T02:44:05.040Z,12.5
2016-04-04T02:45:05.026Z,12.43
2016-04-04T02:46:05.045Z,12.47
2016-04-04T02:47:05.032Z,12.35
2016-04-04T02:48:05.034Z,12.39
2016-04-04T02:49:05.053Z,12.33
2016-04-04T02:50:05.039Z,12.32
2016-04-04T02:51:05.027Z,12.32
2016-04-04T02:52:05.030Z,12.23
2016-04-04T02:53:05.032Z,12.26
2016-04-04T02:54:05.035Z,12.23
2016-04-04T02:55:05.038Z,12.1
2016-04-04T02:56:05.040Z,12.12
2016-04-04T02:57:05.044Z,12
2016-04-04T02:58:05.030Z,11.99
2016-04-04T02:59:05.033Z,11.96
2016-04-04T03:00:05.051Z,11.81
2016-04-04T03:01:05.039Z,11.77
2016-04-04T03:02:05.041Z,11.76
2016-04-04T03:03:05.043Z,11.74
2016-04-04T03:04:05.047Z,11.71
2016-04-04T03:05:05.049Z,11.71
2016-04-04T03:06:05.052Z,11.83
2016-04-04T03:07:05.039Z,11.8
2016-04-04T03:08:04.910Z,11.8
2016-04-04T03:09:05.053Z,11.68
2016-04-04T03:10:05.055Z,11.83
2016-04-04T03:11:05.058Z,11.74
2016-04-04T03:12:05.061Z,11.71
2016-04-04T03:13:05.048Z,11.74
2016-04-04T03:14:04.895Z,11.68
2016-04-04T03:15:05.038Z,11.68
2016-04-04T03:16:05.040Z,11.78
2016-04-04T03:17:05.059Z,11.71
2016-04-04T03:18:05.062Z,11.78
2016-04-04T03:19:05.065Z,11.78
2016-04-04T03:20:05.051Z,11.74
2016-04-04T03:21:05.054Z,11.78
2016-04-04T03:22:05.073Z,11.8
2016-04-04T03:23:05.059Z,11.88
2016-04-04T03:24:05.047Z,11.93
2016-04-04T03:25:05.050Z,12
2016-04-04T03:26:05.052Z,11.96
2016-04-04T03:27:05.055Z,11.97
2016-04-04T03:28:05.058Z,11.93
2016-04-04T03:29:05.060Z,11.89
2016-04-04T03:30:05.047Z,11.81
2016-04-04T03:31:05.050Z,11.78
2016-04-04T03:32:05.052Z,11.78
2016-04-04T03:33:05.055Z,11.74
2016-04-04T03:34:05.058Z,11.68
2016-04-04T03:35:05.077Z,11.76
2016-04-04T03:36:05.045Z,11.76
2016-04-04T03:37:05.066Z,11.73
2016-04-04T03:38:05.050Z,11.71
2016-04-04T03:39:05.053Z,11.65
2016-04-04T03:40:05.056Z,11.74
2016-04-04T03:41:05.058Z,11.7
2016-04-04T03:42:05.076Z,11.76
2016-04-04T03:43:05.064Z,11.59
2016-04-04T03:44:05.066Z,11.67
2016-04-04T03:45:05.053Z,11.62
2016-04-04T03:46:05.072Z,11.65
2016-04-04T03:47:05.060Z,11.65
2016-04-04T03:48:05.062Z,11.58
2016-04-04T03:49:05.064Z,11.59
2016-04-04T03:50:05.068Z,11.49
2016-04-04T03:51:05.054Z,11.51
2016-04-04T03:52:05.056Z,11.55
2016-04-04T03:53:05.059Z,11.51
2016-04-04T03:54:05.093Z,11.48
2016-04-04T03:55:05.065Z,11.37
2016-04-04T03:56:05.067Z,11.31
2016-04-04T03:57:05.054Z,11.23
2016-04-04T03:58:05.057Z,11.25
2016-04-04T03:59:05.076Z,11.22
2016-04-04T04:00:05.062Z,11.04
2016-04-04T04:01:05.065Z,11.05
2016-04-04T04:02:05.068Z,10.97
2016-04-04T04:03:05.055Z,10.94
2016-04-04T04:04:05.089Z,10.94
2016-04-04T04:05:05.076Z,10.77
2016-04-04T04:06:05.064Z,10.77
2016-04-04T04:07:05.067Z,10.71
2016-04-04T04:08:05.070Z,10.62
2016-04-04T04:09:05.119Z,10.55
2016-04-04T04:10:05.075Z,10.57
2016-04-04T04:11:05.078Z,10.62
2016-04-04T04:12:05.064Z,10.58
2016-04-04T04:13:05.083Z,10.55
2016-04-04T04:14:05.070Z,10.48
2016-04-04T04:15:05.058Z,10.43
2016-04-04T04:16:05.060Z,10.39
2016-04-04T04:17:05.078Z,10.45
2016-04-04T04:18:05.081Z,10.33
2016-04-04T04:19:05.083Z,10.36
2016-04-04T04:20:05.071Z,10.24
2016-04-04T04:21:05.088Z,10.27
2016-04-04T04:22:05.077Z,10.18
2016-04-04T04:23:05.079Z,10.18
2016-04-04T04:24:05.081Z,10.12
2016-04-04T04:25:05.085Z,10.1
2016-04-04T04:26:05.087Z,10.18
2016-04-04T04:27:05.090Z,10.09
2016-04-04T04:28:05.092Z,10.1
2016-04-04T04:29:05.080Z,10.06
2016-04-04T04:30:05.082Z,10.03
2016-04-04T04:31:05.068Z,10.02
2016-04-04T04:32:05.103Z,9.92
2016-04-04T04:33:05.073Z,9.91
2016-04-04T04:34:05.077Z,9.84
2016-04-04T04:35:05.079Z,9.76
2016-04-04T04:36:05.082Z,9.76
2016-04-04T04:37:05.101Z,9.8
2016-04-04T04:38:05.072Z,9.74
2016-04-04T04:39:05.090Z,9.67
2016-04-04T04:40:05.092Z,9.64
2016-04-04T04:41:05.096Z,9.66
2016-04-04T04:42:05.083Z,9.59
2016-04-04T04:43:05.086Z,9.55
2016-04-04T04:44:04.947Z,9.56
2016-04-04T04:45:05.106Z,9.62
2016-04-04T04:46:05.078Z,9.44
2016-04-04T04:47:05.080Z,9.4
2016-04-04T04:48:05.083Z,9.51
2016-04-04T04:49:05.086Z,9.45
2016-04-04T04:50:05.089Z,9.39
2016-04-04T04:51:05.091Z,9.42
2016-04-04T04:52:05.094Z,9.36
2016-04-04T04:53:05.081Z,9.31
2016-04-04T04:54:05.083Z,9.29
2016-04-04T04:55:05.086Z,9.27
2016-04-04T04:56:05.088Z,9.31
2016-04-04T04:57:05.091Z,9.3
2016-04-04T04:58:05.079Z,9.26
2016-04-04T04:59:05.082Z,9.22
2016-04-04T05:00:05.084Z,9.3
2016-04-04T05:01:05.243Z,9.3
2016-04-04T05:02:05.090Z,9.29
2016-04-04T05:03:05.092Z,9.33
2016-04-04T05:04:05.096Z,9.26
2016-04-04T05:05:05.098Z,9.3
2016-04-04T05:06:05.101Z,9.33
2016-04-04T05:07:05.087Z,9.29
2016-04-04T05:08:05.090Z,9.34
2016-04-04T05:09:05.093Z,9.3
2016-04-04T05:10:05.095Z,9.4
2016-04-04T05:11:05.083Z,9.36
2016-04-04T05:12:05.100Z,9.4
2016-04-04T05:13:05.104Z,9.34
2016-04-04T05:14:05.106Z,9.4
2016-04-04T05:15:05.093Z,9.42
2016-04-04T05:16:05.097Z,9.47
2016-04-04T05:17:05.115Z,9.49
2016-04-04T05:18:05.102Z,9.55
2016-04-04T05:19:05.088Z,9.59
2016-04-04T05:20:05.092Z,9.63
2016-04-04T05:21:05.094Z,9.69
2016-04-04T05:22:05.096Z,9.72
2016-04-04T05:23:05.099Z,9.74
2016-04-04T05:24:05.089Z,9.84
2016-04-04T05:25:05.199Z,9.9
2016-04-04T05:26:05.091Z,9.92
2016-04-04T05:27:05.241Z,10.03
2016-04-04T05:28:05.129Z,10.1
2016-04-04T05:29:05.099Z,10.13
2016-04-04T05:30:05.118Z,10.13
2016-04-04T05:31:05.090Z,10.15
2016-04-04T05:32:05.108Z,10.25
2016-04-04T05:33:05.095Z,10.39
2016-04-04T05:34:04.941Z,10.45
2016-04-04T05:35:05.068Z,10.57
2016-04-04T05:36:05.103Z,10.57
2016-04-04T05:37:05.106Z,10.55
2016-04-04T05:38:05.109Z,10.53
2016-04-04T05:39:05.112Z,10.68
2016-04-04T05:40:05.098Z,10.69
2016-04-04T05:41:05.101Z,10.75
2016-04-04T05:42:05.103Z,10.84
2016-04-04T05:43:05.106Z,10.89
2016-04-04T05:44:05.109Z,11.08
2016-04-04T05:45:05.127Z,11.3
2016-04-04T05:46:05.099Z,11.37
2016-04-04T05:47:05.101Z,11.65
2016-04-04T05:48:05.120Z,11.91
2016-04-04T05:49:05.107Z,12.23
2016-04-04T05:50:05.125Z,12.44
2016-04-04T05:51:05.112Z,12.73
2016-04-04T05:52:05.114Z,13.06
2016-04-04T05:53:05.367Z,13.21
2016-04-04T05:54:05.104Z,13.57
2016-04-04T05:55:05.123Z,13.78
2016-04-04T05:56:05.110Z,14.07
2016-04-04T05:57:05.112Z,14.36
2016-04-04T05:58:05.131Z,14.51
2016-04-04T05:59:05.119Z,14.73
2016-04-04T06:00:05.121Z,14.99
2016-04-04T06:01:05.123Z,15.11
2016-04-04T06:02:05.141Z,15.43
2016-04-04T06:03:05.129Z,15.41
2016-04-04T06:04:05.146Z,15.45
2016-04-04T06:05:05.118Z,15.51
2016-04-04T06:06:05.137Z,15.67
2016-04-04T06:07:05.140Z,15.67
2016-04-04T06:08:05.126Z,15.8
2016-04-04T06:09:05.129Z,15.91
2016-04-04T06:10:05.132Z,16.24
2016-04-04T06:11:05.134Z,16.57
2016-04-04T06:12:05.137Z,16.79
2016-04-04T06:13:05.140Z,17.07
2016-04-04T06:14:05.158Z,17.35
2016-04-04T06:15:05.145Z,17.9
2016-04-04T06:16:05.148Z,18.31
2016-04-04T06:17:05.166Z,18.94
2016-04-04T06:18:05.169Z,19.7
2016-04-04T06:19:05.172Z,20.42
2016-04-04T06:20:05.175Z,21.13
2016-04-04T06:21:05.161Z,21.69
2016-04-04T06:22:05.164Z,22.16
2016-04-04T06:23:05.198Z,22.63
2016-04-04T06:24:05.185Z,23.04
2016-04-04T06:25:05.188Z,23.45
2016-04-04T06:26:05.190Z,23.56
2016-04-04T06:27:05.177Z,23.76
2016-04-04T06:28:05.196Z,24.07
2016-04-04T06:29:05.198Z,24.37
2016-04-04T06:30:05.202Z,24.75
2016-04-04T06:31:05.204Z,25.15
2016-04-04T06:32:05.207Z,25.56
2016-04-04T06:33:05.209Z,25.74
2016-04-04T06:34:05.213Z,25.96
2016-04-04T06:35:05.215Z,26.27
2016-04-04T06:36:05.217Z,26.6
2016-04-04T06:37:05.221Z,26.88
2016-04-04T06:38:05.223Z,27.1
2016-04-04T06:39:05.241Z,27.41
2016-04-04T06:40:05.228Z,27.64
2016-04-04T06:41:05.246Z,27.91
2016-04-04T06:42:05.249Z,28.3
2016-04-04T06:43:05.251Z,28.57
2016-04-04T06:44:05.254Z,28.71
2016-04-04T06:45:05.304Z,28.87
2016-04-04T06:46:05.292Z,29
2016-04-04T06:47:05.262Z,29.02
2016-04-04T06:48:05.281Z,29.16
2016-04-04T06:49:05.284Z,29.24
2016-04-04T06:50:05.286Z,29.31
2016-04-04T06:51:05.289Z,29.34
2016-04-04T06:52:05.307Z,29.5
2016-04-04T06:53:05.294Z,29.49
2016-04-04T06:54:05.313Z,29.59
2016-04-04T06:55:05.316Z,29.86
2016-04-04T06:56:05.318Z,30.13
2016-04-04T06:57:05.321Z,30.27
2016-04-04T06:58:05.339Z,30.38
2016-04-04T06:59:05.341Z,30.55
2016-04-04T07:00:05.360Z,30.58
2016-04-04T07:01:05.352Z,30.71
2016-04-04T07:02:05.355Z,30.78
2016-04-04T07:03:05.357Z,30.8
2016-04-04T07:04:05.376Z,30.93
2016-04-04T07:05:05.378Z,31.13
2016-04-04T07:06:05.382Z,31.2
2016-04-04T07:07:05.399Z,31.51
2016-04-04T07:08:05.387Z,31.73
2016-04-04T07:09:05.404Z,32
2016-04-04T07:10:05.423Z,32.3
2016-04-04T07:11:05.409Z,32.56
2016-04-04T07:12:05.412Z,33
2016-04-04T07:13:05.431Z,33.22
2016-04-04T07:14:05.433Z,33.66
2016-04-04T07:15:05.437Z,33.85
2016-04-04T07:16:05.439Z,33.87
2016-04-04T07:17:05.472Z,33.55
2016-04-04T07:18:05.475Z,33
2016-04-04T07:19:05.494Z,32.16
2016-04-04T07:20:05.497Z,31.25
2016-04-04T07:21:05.483Z,30.33
2016-04-04T07:22:05.487Z,29.46
2016-04-04T07:23:05.489Z,28.8
2016-04-04T07:24:05.508Z,28.57
2016-04-04T07:25:05.510Z,28.68
2016-04-04T07:26:05.513Z,29.05
2016-04-04T07:27:05.516Z,29.73
2016-04-04T07:28:05.535Z,30.56
2016-04-04T07:29:05.537Z,31.37
2016-04-04T07:30:05.523Z,32.08
2016-04-04T07:31:05.543Z,32.83
2016-04-04T07:32:05.561Z,33.48
2016-04-04T07:33:05.579Z,33.92
2016-04-04T07:34:05.565Z,34.33
2016-04-04T07:35:05.569Z,34.86
2016-04-04T07:36:05.586Z,35.26
2016-04-04T07:37:05.605Z,35.66
2016-04-04T07:38:05.576Z,35.9
2016-04-04T07:39:05.610Z,36.14
2016-04-04T07:40:05.457Z,36.2
2016-04-04T07:41:05.616Z,36.41
2016-04-04T07:42:05.618Z,36.8
2016-04-04T07:43:05.636Z,36.66
2016-04-04T07:44:05.624Z,36.01
2016-04-04T07:45:05.627Z,35.13
2016-04-04T07:46:05.645Z,34.02
2016-04-04T07:47:05.663Z,33
2016-04-04T07:48:05.681Z,31.95
2016-04-04T07:49:05.684Z,30.96
2016-04-04T07:50:05.672Z,30.08
2016-04-04T07:51:05.689Z,29.37
2016-04-04T07:52:05.692Z,28.72
2016-04-04T07:53:05.694Z,28.27
2016-04-04T07:54:05.698Z,27.93
2016-04-04T07:55:05.732Z,27.81
2016-04-04T07:56:05.734Z,27.76
2016-04-04T07:57:05.722Z,28.09
2016-04-04T07:58:05.724Z,28.56
2016-04-04T07:59:05.727Z,29.28
2016-04-04T08:00:05.745Z,30.32
2016-04-04T08:01:05.748Z,31.52
2016-04-04T08:02:05.750Z,32.53
2016-04-04T08:03:05.754Z,33.51
2016-04-04T08:04:05.771Z,34.4
2016-04-04T08:05:05.774Z,35.2
2016-04-04T08:06:05.777Z,35.87
2016-04-04T08:07:05.780Z,36.36
2016-04-04T08:08:05.782Z,36.85
2016-04-04T08:09:05.784Z,37.44
2016-04-04T08:10:05.803Z,37.78
2016-04-04T08:11:05.806Z,38.23
2016-04-04T08:12:05.809Z,38.46
2016-04-04T08:13:05.826Z,38.58
2016-04-04T08:14:05.814Z,38.72
2016-04-04T08:15:05.831Z,38.65
2016-04-04T08:16:05.834Z,38.9
2016-04-04T08:17:05.837Z,38.91
2016-04-04T08:18:05.856Z,38.77
2016-04-04T08:19:05.843Z,38.73
2016-04-04T08:20:05.861Z,38.85
2016-04-04T08:21:05.864Z,38.91
2016-04-04T08:22:05.867Z,39.04
2016-04-04T08:23:05.885Z,39.19
2016-04-04T08:24:05.888Z,39.27
2016-04-04T08:25:05.891Z,39.27
2016-04-04T08:26:05.894Z,39.14
2016-04-04T08:27:05.911Z,39.27
2016-04-04T08:28:05.930Z,39.44
2016-04-04T08:29:05.916Z,39.73
2016-04-04T08:30:05.936Z,39.88
2016-04-04T08:31:05.938Z,40.1
2016-04-04T08:32:05.941Z,40.13
2016-04-04T08:33:05.943Z,40.2
2016-04-04T08:34:05.936Z,40.32
2016-04-04T08:35:05.927Z,40.57
2016-04-04T08:36:05.949Z,40.73
2016-04-04T08:37:05.925Z,40.78
2016-04-04T08:38:05.915Z,40.83
2016-04-04T08:39:05.928Z,40.88
2016-04-04T08:40:05.926Z,40.88
2016-04-04T08:41:05.940Z,40.95
2016-04-04T08:42:05.923Z,40.99
2016-04-04T08:43:05.921Z,40.89
2016-04-04T08:44:05.938Z,40.98
2016-04-04T08:45:05.939Z,41.14
2016-04-04T08:46:05.941Z,41.36
2016-04-04T08:47:05.957Z,41.42
2016-04-04T08:48:05.942Z,41.39
2016-04-04T08:49:05.960Z,41.32
2016-04-04T08:50:05.961Z,41.3
2016-04-04T08:51:05.979Z,41.15
2016-04-04T08:52:05.965Z,41.2
2016-04-04T08:53:05.967Z,41.36
2016-04-04T08:54:05.985Z,41.17
2016-04-04T08:55:05.988Z,41.34
2016-04-04T08:56:05.990Z,41.45
2016-04-04T08:57:05.992Z,41.34
2016-04-04T08:58:06.025Z,41.3
2016-04-04T08:59:06.028Z,41.05
2016-04-04T09:00:06.031Z,41.03
2016-04-04T09:01:06.019Z,41.07
2016-04-04T09:02:06.021Z,41.17
2016-04-04T09:03:06.038Z,41.3
2016-04-04T09:04:06.042Z,41.23
2016-04-04T09:05:06.060Z,41.1
2016-04-04T09:06:06.047Z,41.04
2016-04-04T09:07:06.065Z,40.92
2016-04-04T09:08:06.068Z,40.83
2016-04-04T09:09:06.071Z,40.89
2016-04-04T09:10:06.090Z,40.89
2016-04-04T09:11:06.060Z,40.78
2016-04-04T09:12:06.063Z,40.77
2016-04-04T09:13:06.081Z,40.81
2016-04-04T09:14:06.084Z,40.78
2016-04-04T09:15:06.087Z,40.66
2016-04-04T09:16:06.106Z,40.57
2016-04-04T09:17:06.108Z,40.46
2016-04-04T09:18:06.126Z,40.59
2016-04-04T09:19:06.129Z,40.66
2016-04-04T09:20:06.116Z,40.61
2016-04-04T09:21:06.119Z,40.57
2016-04-04T09:22:06.122Z,40.54
2016-04-04T09:23:06.139Z,40.48
2016-04-04T09:24:06.142Z,40.44
2016-04-04T09:25:06.145Z,40.26
2016-04-04T09:26:06.148Z,40.17
2016-04-04T09:27:06.166Z,40.19
2016-04-04T09:28:06.169Z,40.22
2016-04-04T09:29:06.172Z,40.23
2016-04-04T09:30:06.174Z,40.24
2016-04-04T09:31:06.177Z,40.29
2016-04-04T09:32:06.180Z,40.1
2016-04-04T09:33:06.213Z,39.86
2016-04-04T09:34:06.200Z,39.3
2016-04-04T09:35:06.188Z,38.77
2016-04-04T09:36:06.190Z,38.16
2016-04-04T09:37:06.208Z,37.34
2016-04-04T09:38:06.196Z,36.72
2016-04-04T09:39:06.230Z,35.88
2016-04-04T09:40:06.216Z,35
2016-04-04T09:41:06.219Z,34
2016-04-04T09:42:06.221Z,33.04
2016-04-04T09:43:06.224Z,32.23
2016-04-04T09:44:06.227Z,31.3
2016-04-04T09:45:06.230Z,30.51
2016-04-04T09:46:06.233Z,29.92
2016-04-04T09:47:06.235Z,29.27
2016-04-04T09:48:06.269Z,28.72
2016-04-04T09:49:06.257Z,28.33
2016-04-04T09:50:06.260Z,27.97
2016-04-04T09:51:06.262Z,27.64
2016-04-04T09:52:06.280Z,27.23
2016-04-04T09:53:06.283Z,26.96
2016-04-04T09:54:06.269Z,26.66
2016-04-04T09:55:06.272Z,26.36
2016-04-04T09:56:06.292Z,26.07
2016-04-04T09:57:06.294Z,25.74
2016-04-04T09:58:06.281Z,25.62
2016-04-04T09:59:06.299Z,25.36
2016-04-04T10:00:06.317Z,25.14
2016-04-04T10:01:06.305Z,24.93
2016-04-04T10:02:06.308Z,24.85
2016-04-04T10:03:06.311Z,24.66
2016-04-04T10:04:06.313Z,24.61
2016-04-04T10:05:06.346Z,24.55
2016-04-04T10:06:06.333Z,24.53
2016-04-04T10:07:06.336Z,24.53
2016-04-04T10:08:06.339Z,24.53
2016-04-04T10:09:06.357Z,24.51
2016-04-04T10:10:06.349Z,24.44
2016-04-04T10:11:06.382Z,24.46
2016-04-04T10:12:06.340Z,24.46
2016-04-04T10:13:06.357Z,24.47
2016-04-04T10:14:06.376Z,24.51
2016-04-04T10:15:06.362Z,24.43
2016-04-04T10:16:06.381Z,24.47
2016-04-04T10:17:06.368Z,24.5
2016-04-04T10:18:06.371Z,24.62
2016-04-04T10:19:06.389Z,24.68
2016-04-04T10:20:06.392Z,24.66
2016-04-04T10:21:06.394Z,24.58
2016-04-04T10:22:06.397Z,24.56
2016-04-04T10:23:06.400Z,24.59
2016-04-04T10:24:06.403Z,24.62
2016-04-04T10:25:06.405Z,24.65
2016-04-04T10:26:06.408Z,24.63
2016-04-04T10:27:06.411Z,24.62
2016-04-04T10:28:06.414Z,24.5
2016-04-04T10:29:06.416Z,24.61
2016-04-04T10:30:06.419Z,24.58
2016-04-04T10:31:06.436Z,24.66
2016-04-04T10:32:06.424Z,24.66
2016-04-04T10:33:06.426Z,24.63
2016-04-04T10:34:06.445Z,24.62
2016-04-04T10:35:06.448Z,24.75
2016-04-04T10:36:06.450Z,24.75
2016-04-04T10:37:06.452Z,24.82
2016-04-04T10:38:06.455Z,24.79
2016-04-04T10:39:06.442Z,24.77
2016-04-04T10:40:06.460Z,24.81
2016-04-04T10:41:06.464Z,24.86
2016-04-04T10:42:06.466Z,24.97
2016-04-04T10:43:06.469Z,24.97
2016-04-04T10:44:06.471Z,24.96
2016-04-04T10:45:06.490Z,24.93
2016-04-04T10:46:06.477Z,24.85
2016-04-04T10:47:06.480Z,24.86
2016-04-04T10:48:06.498Z,24.82
2016-04-04T10:49:06.501Z,24.84
2016-04-04T10:50:06.519Z,24.81
2016-04-04T10:51:06.522Z,24.75
2016-04-04T10:52:06.509Z,24.93
2016-04-04T10:53:06.512Z,24.82
2016-04-04T10:54:06.530Z,24.85
2016-04-04T10:55:06.533Z,24.75
2016-04-04T10:56:06.503Z,24.69
2016-04-04T10:57:06.522Z,24.61
2016-04-04T10:58:06.525Z,24.5
2016-04-04T10:59:06.528Z,24.28
2016-04-04T11:00:06.530Z,24.25
2016-04-04T11:01:06.533Z,24.14
2016-04-04T11:02:06.552Z,24.25
2016-04-04T11:03:06.555Z,24.22
2016-04-04T11:04:06.557Z,24.07
2016-04-04T11:05:06.560Z,24.26
2016-04-04T11:06:06.562Z,24.24
2016-04-04T11:07:06.566Z,24.26
2016-04-04T11:08:06.583Z,24.19
2016-04-04T11:09:06.580Z,24.22
2016-04-04T11:10:06.582Z,24.11
2016-04-04T11:11:06.570Z,24.14
2016-04-04T11:12:06.572Z,24.25
2016-04-04T11:13:06.575Z,24.22
2016-04-04T11:14:06.578Z,24.21
2016-04-04T11:15:06.581Z,24.25
2016-04-04T11:16:06.598Z,24.28
2016-04-04T11:17:06.648Z,24.21
2016-04-04T11:18:06.604Z,24.28
2016-04-04T11:19:06.607Z,24.24
2016-04-04T11:20:06.609Z,24.26
2016-04-04T11:21:06.612Z,24.22
2016-04-04T11:22:06.615Z,24.21
2016-04-04T11:23:06.634Z,24.16
2016-04-04T11:24:06.620Z,24.11
2016-04-04T11:25:06.623Z,24.09
2016-04-04T11:26:06.642Z,23.96
2016-04-04T11:27:06.644Z,23.95
2016-04-04T11:28:06.631Z,23.81
2016-04-04T11:29:06.650Z,23.85
2016-04-04T11:30:06.652Z,23.84
2016-04-04T11:31:06.655Z,23.76
2016-04-04T11:32:06.657Z,23.69
2016-04-04T11:33:06.644Z,23.7
2016-04-04T11:34:06.662Z,23.71
2016-04-04T11:35:06.681Z,23.71
2016-04-04T11:36:06.668Z,23.67
2016-04-04T11:37:06.670Z,23.66
2016-04-04T11:38:06.673Z,23.56
2016-04-04T11:39:06.682Z,23.55
2016-04-04T11:40:06.684Z,23.55
2016-04-04T11:41:06.687Z,23.59
2016-04-04T11:42:06.689Z,23.66
2016-04-04T11:43:06.692Z,23.63
2016-04-04T11:44:06.695Z,23.59
2016-04-04T11:45:06.697Z,23.55
2016-04-04T11:46:06.700Z,23.58
2016-04-04T11:47:06.702Z,23.54
2016-04-04T11:48:06.721Z,23.55
2016-04-04T11:49:06.724Z,23.54
2016-04-04T11:50:06.726Z,23.56
2016-04-04T11:51:06.729Z,23.55
2016-04-04T11:52:06.732Z,23.56
2016-04-04T11:53:06.735Z,23.7
2016-04-04T11:54:06.737Z,23.66
2016-04-04T11:55:06.756Z,23.66
2016-04-04T11:56:06.743Z,23.63
2016-04-04T11:57:06.746Z,23.52
2016-04-04T11:58:06.749Z,23.64
2016-04-04T11:59:06.751Z,23.56
2016-04-04T12:00:06.754Z,23.62
2016-04-04T12:01:06.771Z,23.63
2016-04-04T12:02:06.790Z,23.63
2016-04-04T12:03:06.777Z,23.64
2016-04-04T12:04:06.764Z,23.63
2016-04-04T12:05:06.767Z,23.59
2016-04-04T12:06:06.769Z,23.62
2016-04-04T12:07:06.803Z,23.51
2016-04-04T12:08:06.775Z,23.55
2016-04-04T12:09:06.777Z,23.55
2016-04-04T12:10:06.796Z,23.56
2016-04-04T12:11:06.798Z,23.56
2016-04-04T12:12:06.786Z,23.55
2016-04-04T12:13:06.804Z,23.58
2016-04-04T12:14:06.635Z,23.52
2016-04-04T12:15:06.809Z,23.52
2016-04-04T12:16:06.812Z,23.55
2016-04-04T12:17:06.814Z,23.58
2016-04-04T12:18:06.817Z,23.62
2016-04-04T12:19:06.836Z,23.58
2016-04-04T12:20:06.807Z,23.54
2016-04-04T12:21:06.826Z,23.37
2016-04-04T12:22:06.828Z,23.37
2016-04-04T12:23:06.831Z,23.34
2016-04-04T12:24:06.834Z,23.45
2016-04-04T12:25:06.821Z,23.45
2016-04-04T12:26:06.839Z,23.45
2016-04-04T12:27:06.842Z,23.4
2016-04-04T12:28:06.860Z,23.42
2016-04-04T12:29:06.847Z,23.47
2016-04-04T12:30:06.849Z,23.49
2016-04-04T12:31:06.852Z,23.55
2016-04-04T12:32:06.855Z,23.59
2016-04-04T12:33:06.857Z,23.62
2016-04-04T12:34:06.860Z,23.59
2016-04-04T12:35:06.878Z,23.66
2016-04-04T12:36:06.881Z,23.67
2016-04-04T12:37:06.884Z,23.63
2016-04-04T12:38:06.887Z,23.71
2016-04-04T12:39:06.889Z,23.69
2016-04-04T12:40:06.893Z,23.64
2016-04-04T12:41:06.895Z,23.54
2016-04-04T12:42:06.898Z,23.54
2016-04-04T12:43:06.901Z,23.54
2016-04-04T12:44:06.903Z,23.45
2016-04-04T12:45:06.906Z,23.45
2016-04-04T12:46:06.908Z,23.45
2016-04-04T12:47:06.911Z,23.45
2016-04-04T12:48:06.914Z,23.51
2016-04-04T12:49:06.916Z,23.52
2016-04-04T12:50:06.919Z,23.54
2016-04-04T12:51:06.922Z,23.52
2016-04-04T12:52:06.924Z,23.55
2016-04-04T12:53:06.942Z,23.55
2016-04-04T12:54:06.929Z,23.55
2016-04-04T12:55:06.947Z,23.55
2016-04-04T12:56:06.950Z,23.62
2016-04-04T12:57:06.937Z,23.55